createdAt,value
2018-07-14T00:02:17.040Z,99.90
2018-07-14T00:04:48.150Z,99.90
2018-07-14T00:07:19.213Z,99.90
2018-07-14T00:09:51.218Z,99.90
2018-07-14T00:12:22.542Z,99.90
2018-07-14T00:14:53.936Z,99.90
2018-07-14T00:19:55.250Z,99.90
2018-07-14T00:22:26.366Z,99.90
2018-07-14T00:24:57.563Z,99.90
2018-07-14T00:27:28.690Z,99.90
2018-07-14T00:29:59.918Z,99.90
2018-07-14T00:32:31.095Z,99.90
2018-07-14T00:35:02.317Z,99.90
2018-07-14T00:37:33.622Z,99.90
2018-07-14T00:40:04.948Z,99.90
2018-07-14T00:42:36.279Z,99.90
2018-07-14T00:45:07.614Z,99.90
2018-07-14T00:47:38.706Z,99.90
2018-07-14T00:50:09.823Z,99.90
2018-07-14T00:52:41.115Z,99.90
2018-07-14T00:55:12.207Z,99.90
2018-07-14T00:57:43.300Z,99.90
2018-07-14T01:00:14.141Z,99.90
2018-07-14T01:02:45.310Z,99.90
2018-07-14T01:05:16.485Z,99.90
2018-07-14T01:07:47.639Z,99.90
2018-07-14T01:10:18.701Z,99.90
2018-07-14T01:12:50.025Z,99.90
2018-07-14T01:15:21.329Z,99.90
2018-07-14T01:17:53.094Z,99.90
2018-07-14T01:20:24.242Z,99.90
2018-07-14T01:22:55.604Z,99.90
2018-07-14T01:25:26.747Z,99.90
2018-07-14T01:27:57.935Z,99.90
2018-07-14T01:30:29.193Z,99.90
2018-07-14T01:33:00.562Z,99.90
2018-07-14T01:35:31.765Z,99.90
2018-07-14T01:38:02.952Z,99.90
2018-07-14T01:40:34.271Z,99.90
2018-07-14T01:43:05.338Z,99.90
2018-07-14T01:45:36.858Z,99.90
2018-07-14T01:48:08.031Z,99.90
2018-07-14T01:50:39.307Z,99.90
2018-07-14T01:53:10.504Z,99.90
2018-07-14T01:55:41.731Z,99.90
2018-07-14T01:58:12.942Z,99.90
2018-07-14T02:00:44.074Z,99.90
2018-07-14T02:03:15.613Z,99.90
2018-07-14T02:05:46.784Z,99.90
2018-07-14T02:08:18.163Z,99.90
2018-07-14T02:10:49.356Z,99.90
2018-07-14T02:13:20.556Z,99.90
2018-07-14T02:15:51.916Z,99.90
2018-07-14T02:18:23.648Z,99.90
2018-07-14T02:20:54.850Z,99.90
2018-07-14T02:23:26.140Z,99.90
2018-07-14T02:25:57.461Z,99.90
2018-07-14T02:28:28.672Z,99.90
2018-07-14T02:31:00.066Z,99.90
2018-07-14T02:33:31.280Z,99.90
2018-07-14T02:36:02.381Z,99.90
2018-07-14T02:38:33.681Z,99.90
2018-07-14T02:41:04.849Z,99.90
2018-07-14T02:43:35.819Z,99.90
2018-07-14T02:46:07.207Z,99.90
2018-07-14T02:48:38.457Z,99.90
2018-07-14T02:51:09.466Z,99.90
2018-07-14T02:53:40.619Z,99.90
2018-07-14T02:56:12.495Z,99.90
2018-07-14T02:58:43.852Z,99.90
2018-07-14T03:01:14.963Z,99.90
2018-07-14T03:03:46.019Z,99.90
2018-07-14T03:06:17.306Z,99.90
2018-07-14T03:08:48.471Z,99.90
2018-07-14T03:11:19.558Z,99.90
2018-07-14T03:13:50.688Z,99.90
2018-07-14T03:16:21.929Z,99.90
2018-07-14T03:18:53.244Z,99.90
2018-07-14T03:21:24.366Z,99.90
2018-07-14T03:23:55.336Z,99.90
2018-07-14T03:26:26.496Z,99.90
2018-07-14T03:28:57.744Z,99.90
2018-07-14T03:31:28.798Z,99.90
2018-07-14T03:33:59.793Z,99.90
2018-07-14T03:36:31.123Z,99.90
2018-07-14T03:39:02.256Z,99.90
2018-07-14T03:41:33.383Z,99.90
2018-07-14T03:44:04.674Z,99.90
2018-07-14T03:46:35.798Z,99.90
2018-07-14T03:49:07.064Z,99.90
2018-07-14T03:51:38.984Z,99.90
2018-07-14T03:54:10.270Z,99.90
2018-07-14T03:56:41.565Z,99.90
2018-07-14T03:59:13.417Z,99.90
2018-07-14T04:01:44.691Z,99.90
2018-07-14T04:04:15.970Z,99.90
2018-07-14T04:06:47.378Z,99.90
2018-07-14T04:09:18.668Z,99.90
2018-07-14T04:11:50.022Z,99.90
2018-07-14T04:14:21.485Z,99.90
2018-07-14T04:16:52.633Z,99.90
2018-07-14T04:19:23.988Z,99.90
2018-07-14T04:21:55.152Z,99.90
2018-07-14T04:24:26.480Z,99.90
2018-07-14T04:26:57.638Z,99.90
2018-07-14T04:29:28.962Z,99.90
2018-07-14T04:32:00.330Z,99.90
2018-07-14T04:34:31.653Z,99.90
2018-07-14T04:37:02.649Z,99.90
2018-07-14T04:39:33.832Z,99.90
2018-07-14T04:42:04.975Z,99.90
2018-07-14T04:44:36.195Z,99.90
2018-07-14T04:47:07.626Z,99.90
2018-07-14T04:49:38.643Z,99.90
2018-07-14T04:52:09.825Z,99.90
2018-07-14T04:54:40.965Z,99.90
2018-07-14T04:57:12.075Z,99.90
2018-07-14T04:59:43.160Z,99.90
2018-07-14T05:02:14.295Z,99.90
2018-07-14T05:04:45.590Z,99.90
2018-07-14T05:07:16.710Z,99.90
2018-07-14T05:09:48.129Z,99.90
2018-07-14T05:12:19.428Z,99.90
2018-07-14T05:14:50.783Z,99.90
2018-07-14T05:17:22.532Z,99.90
2018-07-14T05:22:23.927Z,99.90
2018-07-14T05:24:55.245Z,99.90
2018-07-14T05:27:26.467Z,99.90
2018-07-14T05:29:57.789Z,99.90
2018-07-14T05:32:29.237Z,99.90
2018-07-14T05:35:00.317Z,99.90
2018-07-14T05:37:31.619Z,99.20
2018-07-14T05:40:02.579Z,96.70
2018-07-14T05:42:33.832Z,93.90
2018-07-14T05:45:04.933Z,91.40
2018-07-14T05:47:36.092Z,91.20
2018-07-14T05:50:07.839Z,90.10
2018-07-14T05:52:39.064Z,87.80
2018-07-14T05:55:10.127Z,86.10
2018-07-14T05:57:41.458Z,85.40
2018-07-14T06:00:12.834Z,84.80
2018-07-14T06:02:43.952Z,84.50
2018-07-14T06:05:15.168Z,83.80
2018-07-14T06:07:46.400Z,84.10
2018-07-14T06:10:17.607Z,83.90
2018-07-14T06:12:48.931Z,83.90
2018-07-14T06:15:20.402Z,83.50
2018-07-14T06:17:51.759Z,82.50
2018-07-14T06:20:23.074Z,81.10
2018-07-14T06:22:54.160Z,79.70
2018-07-14T06:25:25.449Z,77.60
2018-07-14T06:27:56.871Z,76.90
2018-07-14T06:30:28.228Z,76.90
2018-07-14T06:32:59.289Z,75.20
2018-07-14T06:35:30.321Z,73.70
2018-07-14T06:38:01.512Z,73.30
2018-07-14T06:40:32.582Z,72.50
2018-07-14T06:43:03.852Z,71.50
2018-07-14T06:45:35.137Z,70.00
2018-07-14T06:48:06.682Z,69.50
2018-07-14T06:50:37.869Z,69.50
2018-07-14T06:53:08.949Z,68.90
2018-07-14T06:55:40.424Z,67.30
2018-07-14T06:58:11.575Z,67.00
2018-07-14T07:00:42.876Z,65.90
2018-07-14T07:03:14.105Z,66.40
2018-07-14T07:05:45.362Z,67.80
2018-07-14T07:08:17.705Z,68.60
2018-07-14T07:10:49.302Z,69.40
2018-07-14T07:13:20.727Z,69.80
2018-07-14T07:15:52.130Z,70.60
2018-07-14T07:18:23.554Z,70.40
2018-07-14T07:20:54.804Z,70.40
2018-07-14T07:23:26.226Z,70.80
2018-07-14T07:25:57.504Z,70.90
2018-07-14T07:28:28.748Z,70.30
2018-07-14T07:30:59.862Z,70.20
2018-07-14T07:33:31.134Z,70.60
2018-07-14T07:36:02.290Z,70.50
2018-07-14T07:38:33.357Z,69.40
2018-07-14T07:41:04.647Z,69.60
2018-07-14T07:43:35.806Z,69.70
2018-07-14T07:46:07.042Z,70.60
2018-07-14T07:48:38.173Z,71.20
2018-07-14T07:51:09.421Z,71.70
2018-07-14T07:53:41.336Z,70.60
2018-07-14T07:56:12.647Z,70.10
2018-07-14T07:58:43.792Z,68.80
2018-07-14T08:01:15.480Z,67.80
2018-07-14T08:03:46.620Z,65.60
2018-07-14T08:06:17.787Z,65.50
2018-07-14T08:08:49.491Z,64.80
2018-07-14T08:11:20.952Z,64.40
2018-07-14T08:18:53.158Z,60.60
2018-07-14T08:21:25.097Z,59.30
2018-07-14T08:23:56.212Z,58.30
2018-07-14T08:26:27.599Z,56.60
2018-07-14T08:28:58.966Z,55.50
2018-07-14T08:31:30.426Z,53.90
2018-07-14T08:34:01.608Z,53.10
2018-07-14T08:36:32.521Z,51.90
2018-07-14T08:39:04.099Z,52.10
2018-07-14T08:41:35.058Z,52.50
2018-07-14T08:44:06.187Z,51.30
2018-07-14T08:46:37.616Z,51.10
2018-07-14T08:49:08.755Z,51.60
2018-07-14T08:51:39.911Z,52.00
2018-07-14T08:54:10.958Z,52.50
2018-07-14T08:56:42.208Z,52.40
2018-07-14T08:59:13.614Z,53.10
2018-07-14T09:01:44.926Z,53.80
2018-07-14T09:04:16.138Z,54.00
2018-07-14T09:06:47.291Z,54.30
2018-07-14T09:09:18.985Z,54.10
2018-07-14T09:11:50.706Z,54.20
2018-07-14T09:14:22.085Z,53.30
2018-07-14T09:16:53.370Z,53.10
2018-07-14T09:19:24.451Z,52.90
2018-07-14T09:21:55.615Z,53.00
2018-07-14T09:24:27.026Z,51.90
2018-07-14T09:26:58.493Z,51.20
2018-07-14T09:29:29.968Z,51.00
2018-07-14T09:32:01.343Z,51.70
2018-07-14T09:34:32.875Z,51.50
2018-07-14T09:37:04.095Z,51.70
2018-07-14T09:39:35.722Z,51.40
2018-07-14T09:42:06.946Z,52.90
2018-07-14T09:44:38.180Z,52.50
2018-07-14T09:47:09.162Z,51.70
2018-07-14T09:49:40.386Z,52.20
2018-07-14T09:52:11.720Z,51.50
2018-07-14T09:54:42.878Z,50.80
2018-07-14T09:57:14.633Z,50.20
2018-07-14T09:59:45.842Z,47.80
2018-07-14T10:02:17.351Z,47.90
2018-07-14T10:04:48.774Z,48.50
2018-07-14T10:07:20.380Z,48.10
2018-07-14T10:09:51.675Z,47.50
2018-07-14T10:12:22.712Z,46.80
2018-07-14T10:14:54.097Z,46.50
2018-07-14T10:17:25.400Z,47.70
2018-07-14T10:19:56.435Z,47.80
2018-07-14T10:22:27.680Z,46.40
2018-07-14T10:24:58.937Z,47.70
2018-07-14T10:27:29.931Z,48.10
2018-07-14T10:30:01.088Z,48.10
2018-07-14T10:32:32.089Z,47.20
2018-07-14T10:35:03.190Z,45.90
2018-07-14T10:37:34.633Z,46.70
2018-07-14T10:40:05.870Z,45.30
2018-07-14T10:42:37.699Z,46.00
2018-07-14T10:45:09.145Z,45.60
2018-07-14T10:47:40.385Z,46.10
2018-07-14T10:50:12.058Z,46.50
2018-07-14T10:52:43.073Z,46.90
2018-07-14T10:55:14.170Z,47.10
2018-07-14T10:57:45.385Z,47.60
2018-07-14T11:00:16.913Z,47.30
2018-07-14T11:02:48.585Z,47.20
2018-07-14T11:05:19.918Z,46.90
2018-07-14T11:07:51.500Z,45.80
2018-07-14T11:10:22.665Z,44.30
2018-07-14T11:12:53.886Z,42.90
2018-07-14T11:15:25.188Z,42.50
2018-07-14T11:17:56.587Z,42.00
2018-07-14T11:20:28.011Z,42.30
2018-07-14T11:23:00.188Z,41.90
2018-07-14T11:25:31.825Z,41.60
2018-07-14T11:28:02.879Z,41.10
2018-07-14T11:30:34.784Z,40.80
2018-07-14T11:33:06.126Z,40.70
2018-07-14T11:35:37.164Z,40.40
2018-07-14T11:38:08.469Z,39.60
2018-07-14T11:40:39.625Z,39.90
2018-07-14T11:43:10.917Z,39.20
2018-07-14T11:45:42.562Z,39.40
2018-07-14T11:48:14.491Z,39.10
2018-07-14T11:50:45.751Z,39.30
2018-07-14T11:53:18.292Z,39.50
2018-07-14T11:55:49.416Z,40.20
2018-07-14T11:58:20.984Z,40.00
2018-07-14T12:00:52.172Z,40.50
2018-07-14T12:03:23.879Z,41.00
2018-07-14T12:05:54.929Z,41.10
2018-07-14T12:08:26.084Z,41.40
2018-07-14T12:10:57.186Z,41.80
2018-07-14T12:13:28.154Z,40.80
2018-07-14T12:15:59.403Z,40.40
2018-07-14T12:18:30.540Z,39.80
2018-07-14T12:21:01.784Z,39.90
2018-07-14T12:23:32.845Z,40.60
2018-07-14T12:26:04.133Z,40.40
2018-07-14T12:28:35.437Z,39.60
2018-07-14T12:31:06.562Z,39.40
2018-07-14T12:33:38.362Z,39.30
2018-07-14T12:36:09.384Z,39.10
2018-07-14T12:38:41.024Z,39.40
2018-07-14T12:41:12.184Z,40.30
2018-07-14T12:43:43.556Z,40.70
2018-07-14T12:46:15.435Z,41.30
2018-07-14T12:48:46.583Z,40.80
2018-07-14T12:51:18.087Z,41.60
2018-07-14T12:53:49.480Z,40.00
2018-07-14T12:56:20.734Z,40.10
2018-07-14T12:58:52.399Z,39.20
2018-07-14T13:01:23.616Z,40.10
2018-07-14T13:03:54.940Z,39.80
2018-07-14T13:06:26.193Z,39.80
2018-07-14T13:08:57.633Z,39.10
2018-07-14T13:11:28.935Z,39.40
2018-07-14T13:14:00.287Z,39.50
2018-07-14T13:16:31.423Z,39.80
2018-07-14T13:19:03.197Z,39.20
2018-07-14T13:21:34.430Z,39.40
2018-07-14T13:24:05.498Z,39.40
2018-07-14T13:26:36.601Z,39.80
2018-07-14T13:29:08.063Z,39.80
2018-07-14T13:31:39.192Z,39.80
2018-07-14T13:34:10.334Z,40.50
2018-07-14T13:36:41.585Z,40.40
2018-07-14T13:39:12.611Z,39.60
2018-07-14T13:41:43.818Z,39.60
2018-07-14T13:44:15.192Z,39.60
2018-07-14T13:46:46.660Z,39.20
2018-07-14T13:49:17.900Z,38.70
2018-07-14T13:51:49.807Z,38.80
2018-07-14T13:54:21.052Z,39.30
2018-07-14T13:56:53.715Z,39.60
2018-07-14T13:59:24.886Z,39.10
2018-07-14T14:01:56.564Z,38.70
2018-07-14T14:04:27.846Z,38.00
2018-07-14T14:06:59.589Z,37.30
2018-07-14T14:09:30.846Z,36.40
2018-07-14T14:12:01.976Z,35.70
2018-07-14T14:17:03.347Z,37.40
2018-07-14T14:19:34.609Z,38.00
2018-07-14T14:22:06.033Z,38.40
2018-07-14T14:24:37.233Z,38.30
2018-07-14T14:27:08.298Z,38.50
2018-07-14T14:29:40.108Z,38.20
2018-07-14T14:32:11.199Z,38.20
2018-07-14T14:34:42.969Z,37.70
2018-07-14T14:37:14.696Z,37.40
2018-07-14T14:39:46.164Z,36.80
2018-07-14T14:42:17.398Z,36.00
2018-07-14T14:44:48.936Z,36.00
2018-07-14T14:47:20.045Z,35.50
2018-07-14T14:49:51.552Z,35.10
2018-07-14T14:52:23.069Z,35.60
2018-07-14T14:54:54.391Z,35.60
2018-07-14T14:57:25.730Z,35.90
2018-07-14T14:59:56.804Z,36.00
2018-07-14T15:02:28.113Z,37.20
2018-07-14T15:04:59.137Z,38.20
2018-07-14T15:07:30.125Z,38.50
2018-07-14T15:10:01.282Z,39.10
2018-07-14T15:12:32.336Z,39.10
2018-07-14T15:15:03.646Z,38.90
2018-07-14T15:17:34.822Z,39.20
2018-07-14T15:20:05.897Z,39.10
2018-07-14T15:22:36.920Z,38.90
2018-07-14T15:25:08.157Z,38.70
2018-07-14T15:27:39.490Z,38.40
2018-07-14T15:30:10.822Z,38.10
2018-07-14T15:32:41.938Z,37.50
2018-07-14T15:35:13.072Z,37.20
2018-07-14T15:37:44.269Z,36.90
2018-07-14T15:40:15.417Z,36.90
2018-07-14T15:42:46.379Z,36.60
2018-07-14T15:45:17.606Z,36.50
2018-07-14T15:47:48.656Z,37.00
2018-07-14T15:50:20.323Z,36.90
2018-07-14T15:52:52.865Z,36.30
2018-07-14T15:55:23.964Z,36.10
2018-07-14T15:57:55.519Z,36.10
2018-07-14T16:00:26.688Z,36.30
2018-07-14T16:02:58.412Z,36.60
2018-07-14T16:05:29.618Z,36.70
2018-07-14T16:08:00.845Z,37.10
2018-07-14T16:10:31.941Z,36.60
2018-07-14T16:13:03.093Z,36.90
2018-07-14T16:15:34.072Z,36.60
2018-07-14T16:18:05.608Z,36.60
2018-07-14T16:20:36.881Z,36.40
2018-07-14T16:23:07.919Z,36.60
2018-07-14T16:25:39.173Z,37.00
2018-07-14T16:28:10.641Z,36.70
2018-07-14T16:30:41.716Z,37.00
2018-07-14T16:33:13.106Z,36.60
2018-07-14T16:35:44.483Z,36.50
2018-07-14T16:38:15.567Z,36.50
2018-07-14T16:40:46.923Z,35.80
2018-07-14T16:43:19.623Z,36.00
2018-07-14T16:45:51.030Z,36.20
2018-07-14T16:48:23.290Z,36.00
2018-07-14T16:50:54.479Z,35.20
2018-07-14T16:53:25.868Z,34.60
2018-07-14T16:55:56.961Z,34.00
2018-07-14T16:58:28.109Z,33.50
2018-07-14T17:00:59.458Z,31.70
2018-07-14T17:03:30.549Z,29.60
2018-07-14T17:06:01.792Z,28.80
2018-07-14T17:08:33.007Z,28.80
2018-07-14T17:11:04.426Z,29.50
2018-07-14T17:13:35.655Z,29.90
2018-07-14T17:16:07.129Z,30.60
2018-07-14T17:18:38.348Z,31.70
2018-07-14T17:21:09.544Z,32.70
2018-07-14T17:23:40.584Z,33.60
2018-07-14T17:26:11.557Z,34.30
2018-07-14T17:28:42.991Z,33.20
2018-07-14T17:31:14.518Z,32.10
2018-07-14T17:36:16.004Z,28.90
2018-07-14T17:38:47.049Z,27.40
2018-07-14T17:41:18.001Z,26.10
2018-07-14T17:43:49.705Z,25.10
2018-07-14T17:46:21.362Z,24.60
2018-07-14T17:48:53.089Z,24.80
2018-07-14T17:51:24.639Z,24.80
2018-07-14T17:53:56.039Z,24.60
2018-07-14T17:56:27.089Z,24.30
2018-07-14T17:58:58.050Z,24.40
2018-07-14T18:01:29.434Z,24.00
2018-07-14T18:04:00.453Z,23.80
2018-07-14T18:06:32.049Z,24.10
2018-07-14T18:09:03.226Z,24.20
2018-07-14T18:11:34.424Z,24.20
2018-07-14T18:14:05.536Z,24.40
2018-07-14T18:16:37.241Z,24.50
2018-07-14T18:19:08.374Z,24.70
2018-07-14T18:21:39.441Z,25.00
2018-07-14T18:24:10.621Z,25.40
2018-07-14T18:26:41.759Z,25.50
2018-07-14T18:29:12.804Z,25.70
2018-07-14T18:31:43.854Z,25.80
2018-07-14T18:34:15.227Z,25.90
2018-07-14T18:36:46.188Z,26.30
2018-07-14T18:39:17.149Z,26.30
2018-07-14T18:41:48.091Z,26.90
2018-07-14T18:44:18.933Z,27.40
2018-07-14T18:46:50.493Z,28.30
2018-07-14T18:49:21.692Z,29.80
2018-07-14T18:51:53.683Z,31.40
2018-07-14T18:54:25.007Z,33.70
2018-07-14T18:56:56.244Z,34.80
2018-07-14T18:59:27.547Z,36.90
2018-07-14T19:01:58.761Z,38.80
2018-07-14T19:04:29.966Z,40.40
2018-07-14T19:07:01.214Z,41.50
2018-07-14T19:09:32.440Z,42.20
2018-07-14T19:12:03.535Z,44.20
2018-07-14T19:14:34.698Z,44.30
2018-07-14T19:17:06.182Z,45.00
2018-07-14T19:19:37.102Z,46.60
2018-07-14T19:22:08.664Z,47.10
2018-07-14T19:24:39.751Z,47.80
2018-07-14T19:27:11.103Z,48.10
2018-07-14T19:32:12.517Z,49.00
2018-07-14T19:34:43.602Z,50.60
2018-07-14T19:37:14.918Z,52.90
2018-07-14T19:42:16.602Z,54.90
2018-07-14T19:44:47.814Z,55.60
2018-07-14T19:47:19.434Z,55.70
2018-07-14T19:49:50.688Z,56.00
2018-07-14T19:52:22.051Z,55.90
2018-07-14T19:54:53.194Z,56.90
2018-07-14T19:57:24.520Z,58.00
2018-07-14T19:59:55.862Z,58.60
2018-07-14T20:02:27.102Z,58.70
2018-07-14T20:04:58.709Z,59.10
2018-07-14T20:07:29.809Z,56.50
2018-07-14T20:10:00.987Z,56.90
2018-07-14T20:12:32.016Z,59.30
2018-07-14T20:17:33.983Z,61.10
2018-07-14T20:20:05.952Z,62.50
2018-07-14T20:22:37.332Z,64.60
2018-07-14T20:25:08.785Z,66.60
2018-07-14T20:27:39.926Z,68.10
2018-07-14T20:30:11.341Z,68.40
2018-07-14T20:32:42.411Z,69.70
2018-07-14T20:35:14.033Z,70.70
2018-07-14T20:37:45.330Z,71.70
2018-07-14T20:40:16.788Z,71.40
2018-07-14T20:42:47.941Z,72.60
2018-07-14T20:45:19.708Z,72.30
2018-07-14T20:47:51.057Z,73.20
2018-07-14T20:50:22.389Z,73.30
2018-07-14T20:52:53.752Z,74.50
2018-07-14T20:55:25.307Z,75.30
2018-07-14T20:57:56.536Z,76.60
2018-07-14T21:00:27.806Z,77.80
2018-07-14T21:02:58.810Z,78.60
2018-07-14T21:05:29.997Z,79.10
2018-07-14T21:08:01.448Z,79.50
2018-07-14T21:10:32.465Z,79.90
2018-07-14T21:13:04.239Z,79.90
2018-07-14T21:15:35.291Z,80.30
2018-07-14T21:18:06.445Z,80.90
2018-07-14T21:20:37.513Z,81.90
2018-07-14T21:23:09.068Z,82.50
2018-07-14T21:25:40.653Z,84.20
2018-07-14T21:28:11.749Z,85.10
2018-07-14T21:30:43.044Z,86.60
2018-07-14T21:33:14.195Z,89.50
2018-07-14T21:35:45.513Z,90.40
2018-07-14T21:38:16.840Z,91.30
2018-07-14T21:40:48.059Z,92.20
2018-07-14T21:43:19.167Z,93.10
2018-07-14T21:45:50.390Z,93.60
2018-07-14T21:48:22.306Z,94.10
2018-07-14T21:50:54.008Z,94.50
2018-07-14T21:53:25.232Z,95.50
2018-07-14T21:55:56.624Z,96.10
2018-07-14T21:58:27.873Z,97.20
2018-07-14T22:01:06.584Z,98.10
2018-07-14T22:03:37.820Z,98.50
2018-07-14T22:06:09.041Z,98.90
2018-07-14T22:08:40.384Z,98.50
2018-07-14T22:11:11.553Z,99.30
2018-07-14T22:13:43.133Z,99.10
2018-07-14T22:16:14.340Z,99.30
2018-07-14T22:18:45.225Z,99.90
2018-07-14T22:21:16.281Z,99.90
2018-07-14T22:23:47.403Z,99.90
2018-07-14T22:26:18.478Z,99.90
2018-07-14T22:28:49.878Z,99.90
2018-07-14T22:31:21.342Z,99.90
2018-07-14T22:33:52.417Z,99.90
2018-07-14T22:36:23.627Z,99.90
2018-07-14T22:38:54.828Z,99.90
2018-07-14T22:41:26.166Z,99.90
2018-07-14T22:43:57.482Z,99.90
2018-07-14T22:46:28.631Z,99.90
2018-07-14T22:48:59.935Z,99.90
2018-07-14T22:51:31.565Z,99.90
2018-07-14T22:54:02.648Z,99.90
2018-07-14T22:56:33.706Z,99.90
2018-07-14T22:59:04.861Z,99.90
2018-07-14T23:01:36.133Z,99.90
2018-07-14T23:04:07.443Z,99.90
2018-07-14T23:06:38.432Z,99.90
2018-07-14T23:09:09.524Z,99.90
2018-07-14T23:11:40.742Z,99.90
2018-07-14T23:14:12.077Z,99.90
2018-07-14T23:16:43.067Z,99.90
2018-07-14T23:19:14.210Z,99.90
2018-07-14T23:21:45.535Z,99.90
2018-07-14T23:24:16.709Z,99.90
2018-07-14T23:26:48.200Z,99.90
2018-07-14T23:29:19.264Z,99.90
2018-07-14T23:31:50.486Z,99.90
2018-07-14T23:34:21.758Z,99.90
2018-07-14T23:36:53.258Z,99.90
2018-07-14T23:39:24.377Z,99.90
2018-07-14T23:41:55.476Z,99.90
2018-07-14T23:44:26.534Z,99.90
2018-07-14T23:46:58.045Z,99.90
2018-07-14T23:49:29.358Z,99.90
2018-07-14T23:52:00.747Z,99.90
2018-07-14T23:54:31.979Z,99.90
2018-07-14T23:57:03.323Z,99.90
2018-07-14T23:59:34.471Z,99.90
